createdAt,value
2018-09-13T10:44:25.893Z,7.60
2018-09-13T10:46:15.973Z,7.51
2018-09-13T11:09:46.168Z,8.69
2018-09-13T11:10:47.796Z,8.97
2018-09-13T11:11:46.108Z,9.08
2018-09-13T11:13:47.653Z,9.48
2018-09-13T11:17:13.934Z,8.61
2018-09-13T11:20:09.448Z,8.03
2018-09-13T11:20:42.612Z,7.72
2018-09-13T11:23:19.053Z,6.71
2018-09-13T11:24:19.177Z,7.03
2018-09-13T11:26:17.381Z,8.09
2018-09-13T11:28:17.483Z,9.17
2018-09-13T11:29:19.016Z,9.48
2018-09-13T11:31:20.465Z,9.20
2018-09-13T11:32:17.532Z,9.31
2018-09-13T11:33:20.860Z,9.12
2018-09-13T11:34:17.702Z,8.43
2018-09-13T11:35:17.480Z,8.33
2018-09-13T11:36:17.261Z,7.62
2018-09-13T11:37:17.365Z,7.01
2018-09-13T11:38:17.480Z,6.90
2018-09-13T11:39:17.789Z,7.20
2018-09-13T11:40:18.771Z,7.00
2018-09-13T11:41:21.973Z,6.99
2018-09-13T11:42:18.167Z,6.49
2018-09-13T11:43:20.907Z,6.69
2018-09-13T11:44:21.883Z,6.79
2018-09-13T11:45:18.195Z,7.20
2018-09-13T11:46:18.508Z,7.39
2018-09-13T11:47:17.628Z,7.68
2018-09-13T11:48:21.727Z,7.98
2018-09-13T11:49:18.055Z,8.69
2018-09-13T11:50:19.533Z,9.25
2018-09-13T11:51:17.683Z,10.71
2018-09-13T11:55:20.188Z,12.40
2018-09-13T11:56:17.673Z,12.51
2018-09-13T11:57:18.598Z,11.35
2018-09-13T11:59:17.684Z,10.58
2018-09-13T12:00:17.755Z,10.05
2018-09-13T12:02:20.567Z,10.62
2018-09-13T12:03:17.800Z,10.72
2018-09-13T12:05:21.283Z,10.16
2018-09-13T12:06:21.114Z,9.66
2018-09-13T12:07:19.920Z,9.97
2018-09-13T12:08:18.236Z,9.37
2018-09-13T12:09:19.479Z,9.48
2018-09-13T12:11:20.595Z,9.28
2018-09-13T12:12:18.247Z,9.58
2018-09-13T12:13:20.193Z,9.39
2018-09-13T12:14:17.791Z,8.78
2018-09-13T12:15:17.867Z,9.19
2018-09-13T12:16:17.686Z,9.30
2018-09-13T12:18:20.051Z,9.56
2018-09-13T12:19:17.873Z,9.86
2018-09-13T12:21:17.881Z,10.17
2018-09-13T12:22:17.921Z,9.78
2018-09-13T12:23:19.590Z,9.39
2018-09-13T12:24:17.948Z,9.19
2018-09-13T12:25:17.941Z,9.19
2018-09-13T12:26:17.896Z,7.88
2018-09-13T12:27:17.909Z,8.70
2018-09-13T12:29:17.855Z,8.10
2018-09-13T12:30:18.454Z,8.31
2018-09-13T12:31:17.842Z,7.59
2018-09-13T12:32:19.481Z,7.79
2018-09-13T12:33:17.872Z,8.00
2018-09-13T12:34:17.847Z,7.70
2018-09-13T12:35:18.007Z,7.38
2018-09-13T12:36:17.927Z,7.68
2018-09-13T12:37:17.891Z,7.88
2018-09-13T12:38:17.954Z,7.68
2018-09-13T12:39:17.963Z,7.68
2018-09-13T12:40:18.052Z,7.68
2018-09-13T12:41:19.605Z,8.47
2018-09-13T12:42:17.957Z,8.47
2018-09-13T12:43:20.590Z,8.17
2018-09-13T12:44:18.059Z,8.36
2018-09-13T12:45:17.997Z,9.27
2018-09-13T12:46:18.127Z,8.96
2018-09-13T12:47:20.798Z,9.14
2018-09-13T12:48:18.132Z,10.62
2018-09-13T12:49:20.696Z,10.72
2018-09-13T12:51:21.590Z,10.53
2018-09-13T12:52:18.275Z,10.33
2018-09-13T12:53:18.217Z,10.90
2018-09-13T12:54:18.244Z,11.68
2018-09-13T12:55:18.253Z,12.55
2018-09-13T12:56:18.767Z,12.27
2018-09-13T12:57:18.268Z,11.89
2018-09-13T12:58:18.272Z,12.68
2018-09-13T12:59:18.277Z,11.79
2018-09-13T13:19:24.874Z,11.40
2018-09-13T13:20:17.301Z,11.69
2018-09-13T13:24:23.100Z,12.07
2018-09-13T13:31:23.852Z,12.40
2018-09-13T13:33:13.029Z,12.49
2018-09-13T13:35:12.970Z,12.48
2018-09-13T13:36:14.981Z,11.89
2018-09-13T13:37:12.003Z,12.59
2018-09-13T13:38:11.998Z,12.40
2018-09-13T13:39:12.988Z,11.89
2018-09-13T13:40:12.013Z,12.49
2018-09-13T13:41:12.031Z,12.39
2018-09-13T13:42:12.000Z,12.29
2018-09-13T13:43:13.998Z,12.68
2018-09-13T13:46:12.006Z,13.71
2018-09-13T13:47:12.024Z,14.31
2018-09-13T13:48:15.055Z,13.92
2018-09-13T13:50:15.757Z,13.82
2018-09-13T13:54:12.063Z,13.90
2018-09-13T13:55:12.074Z,14.19
2018-09-13T13:57:14.552Z,14.30
2018-09-13T13:59:12.065Z,13.82
2018-09-13T14:00:12.064Z,13.42
2018-09-13T14:01:12.066Z,13.43
2018-09-13T14:02:12.081Z,13.71
2018-09-13T14:03:14.903Z,14.01
2018-09-13T14:04:12.101Z,13.71
2018-09-13T14:05:12.072Z,14.11
2018-09-13T14:08:15.478Z,14.39
2018-09-13T14:09:14.980Z,15.19
2018-09-13T14:10:12.116Z,14.79
2018-09-13T14:11:12.101Z,14.41
2018-09-13T14:12:12.113Z,14.12
2018-09-13T14:14:12.112Z,14.70
2018-09-13T14:15:12.143Z,14.79
2018-09-13T14:16:15.439Z,14.78
2018-09-13T14:17:12.131Z,15.37
2018-09-13T14:18:14.041Z,15.86
2018-09-13T14:20:15.138Z,15.19
2018-09-13T14:21:12.162Z,14.89
2018-09-13T14:22:12.153Z,14.99
2018-09-13T14:23:12.119Z,15.19
2018-09-13T14:25:13.167Z,15.27
2018-09-13T14:26:12.156Z,16.06
2018-09-13T14:27:15.094Z,15.97
2018-09-13T14:29:12.143Z,16.44
2018-09-13T14:30:12.166Z,16.63
2018-09-13T14:31:12.178Z,16.43
2018-09-13T14:32:12.163Z,17.00
2018-09-13T14:33:12.993Z,17.00
2018-09-13T14:35:12.155Z,17.10
2018-09-13T14:36:12.191Z,17.29
2018-09-13T14:37:12.188Z,17.68
2018-09-13T14:38:12.698Z,17.77
2018-09-13T14:39:16.356Z,17.66
2018-09-13T14:40:12.265Z,18.05
2018-09-13T14:41:12.264Z,18.52
2018-09-13T14:42:12.191Z,18.81
2018-09-13T14:43:12.673Z,19.10
2018-09-13T14:44:12.188Z,19.57
2018-09-13T14:45:14.014Z,19.76
2018-09-13T14:46:15.489Z,20.15
2018-09-13T14:48:14.064Z,20.24
2018-09-13T14:50:15.889Z,21.19
2018-09-13T14:53:14.045Z,23.46
2018-09-13T14:55:13.358Z,25.36
2018-09-13T14:56:14.034Z,26.23
2018-09-13T14:57:12.166Z,26.90
2018-09-13T14:58:12.183Z,27.19
2018-09-13T15:00:13.194Z,27.37
2018-09-13T15:01:12.183Z,28.15
2018-09-13T15:02:12.051Z,28.14
2018-09-13T15:03:15.990Z,28.23
2018-09-13T15:07:22.151Z,28.05
2018-09-13T16:18:23.691Z,56.34
2018-09-13T16:22:32.298Z,58.33
2018-09-13T16:23:27.338Z,58.33
2018-09-13T16:24:28.146Z,58.33
2018-09-13T16:25:28.279Z,58.14
2018-09-13T16:26:31.309Z,58.23
2018-09-13T16:27:26.440Z,58.62
2018-09-13T16:28:26.416Z,59.09
2018-09-13T16:29:31.213Z,58.81
2018-09-13T16:30:28.199Z,59.38
2018-09-13T16:32:02.239Z,59.86
2018-09-13T16:32:26.590Z,60.50
2018-09-13T16:33:26.339Z,60.50
2018-09-13T16:34:26.877Z,60.89
2018-09-13T16:35:47.838Z,60.60
2018-09-13T16:37:26.401Z,61.27
2018-09-13T16:38:26.325Z,61.18
2018-09-13T16:39:48.239Z,61.27
2018-09-13T16:40:26.403Z,61.75
2018-09-13T16:41:27.883Z,61.27
2018-09-13T16:42:26.287Z,62.13
2018-09-13T16:43:26.309Z,62.42
2018-09-13T16:44:26.088Z,61.75
2018-09-13T16:45:28.804Z,61.82
2018-09-13T16:46:26.240Z,62.52
2018-09-13T16:47:28.314Z,62.77
2018-09-13T16:48:26.216Z,63.45
2018-09-13T16:50:28.820Z,63.64
2018-09-13T16:51:26.053Z,63.83
2018-09-13T16:52:26.910Z,63.73
2018-09-13T16:53:26.162Z,63.73
2018-09-13T16:54:27.566Z,64.12
2018-09-13T16:55:26.678Z,63.73
2018-09-13T16:57:25.998Z,64.22
2018-09-13T16:58:26.693Z,64.31
2018-09-13T17:00:36.739Z,64.56
2018-09-13T17:01:26.741Z,64.47
2018-09-13T17:02:25.976Z,65.23
2018-09-13T17:03:25.919Z,65.42
2018-09-13T17:04:26.838Z,66.29
2018-09-13T17:05:26.121Z,65.91
2018-09-13T17:06:27.754Z,66.19
2018-09-13T17:07:25.989Z,66.00
2018-09-13T17:08:28.663Z,66.19
2018-09-13T17:09:25.975Z,66.09
2018-09-13T17:10:26.166Z,67.15
2018-09-13T17:11:27.005Z,67.05
2018-09-13T17:12:25.972Z,66.58
2018-09-13T17:13:25.847Z,67.05
2018-09-13T17:14:26.784Z,67.05
2018-09-13T17:15:26.805Z,67.79
2018-09-13T17:16:27.789Z,67.60
2018-09-13T17:17:25.891Z,67.79
2018-09-13T17:18:25.851Z,68.46
2018-09-13T17:19:25.778Z,68.46
2018-09-13T17:20:32.630Z,68.84
2018-09-13T17:21:30.671Z,68.74
2018-09-13T17:22:47.727Z,69.13
2018-09-13T17:23:25.872Z,69.42
2018-09-13T17:24:26.822Z,69.60
2018-09-13T17:25:25.800Z,69.13
2018-09-13T17:26:25.750Z,69.60
2018-09-13T17:29:35.773Z,70.37
2018-09-13T17:30:32.259Z,69.95
2018-09-13T17:32:52.956Z,70.81
2018-09-13T17:33:52.571Z,71.39
2018-09-13T17:36:00.240Z,72.34
2018-09-13T17:40:48.578Z,73.11
2018-09-13T17:43:00.833Z,73.88
2018-09-13T17:47:37.754Z,74.90
2018-09-13T17:48:55.721Z,74.90
2018-09-13T17:49:34.664Z,75.18
2018-09-13T17:50:37.256Z,75.66
2018-09-13T17:51:34.742Z,76.23
2018-09-13T17:52:34.660Z,76.90
2018-09-13T17:53:35.328Z,76.62
2018-09-13T17:54:34.747Z,76.52
2018-09-13T17:55:35.324Z,76.81
2018-09-13T17:56:34.664Z,77.28
2018-09-13T17:57:45.272Z,77.48
2018-09-13T17:58:35.383Z,77.28
2018-09-13T18:01:24.961Z,78.14
2018-09-13T18:02:15.276Z,77.76
2018-09-13T18:04:27.036Z,78.53
2018-09-13T18:05:20.651Z,78.34
2018-09-13T18:07:17.608Z,78.34
2018-09-13T18:08:16.295Z,78.53
2018-09-13T18:09:34.994Z,78.53
2018-09-13T18:10:14.529Z,78.63
2018-09-13T18:11:16.442Z,78.91
2018-09-13T18:12:24.550Z,79.00
2018-09-13T18:13:15.582Z,79.68
2018-09-13T18:14:13.899Z,79.39
2018-09-13T18:15:14.548Z,79.29
2018-09-13T18:16:14.944Z,79.39
2018-09-13T18:17:13.915Z,79.20
2018-09-13T18:18:14.037Z,79.58
2018-09-13T18:19:13.837Z,79.77
2018-09-13T18:20:16.362Z,80.16
2018-09-13T18:21:20.482Z,79.58
2018-09-13T18:22:13.838Z,79.77
2018-09-13T18:23:13.901Z,79.58
2018-09-13T18:24:15.530Z,80.16
2018-09-13T18:25:13.833Z,80.59
2018-09-13T18:28:20.428Z,79.68
2018-09-13T18:29:18.510Z,79.68
2018-09-13T18:30:13.815Z,80.02
2018-09-13T18:31:13.778Z,80.73
2018-09-13T18:32:14.576Z,80.16
2018-09-13T18:33:14.327Z,80.59
2018-09-13T18:34:13.663Z,80.30
2018-09-13T18:35:13.799Z,80.44
2018-09-13T18:36:13.843Z,80.30
2018-09-13T18:37:16.560Z,80.30
2018-09-13T18:38:15.442Z,81.36
2018-09-13T18:39:13.721Z,81.07
2018-09-13T18:40:13.567Z,80.88
2018-09-13T18:43:14.279Z,81.45
2018-09-13T18:44:13.682Z,80.79
2018-09-13T18:45:14.493Z,80.69
2018-09-13T18:46:14.502Z,81.45
2018-09-13T18:47:15.552Z,81.26
2018-09-13T18:48:15.506Z,81.36
2018-09-13T18:49:21.181Z,81.16
2018-09-13T18:51:16.632Z,81.26
2018-09-13T18:53:24.021Z,81.26
2018-09-13T18:55:56.352Z,80.98
2018-09-13T18:56:48.260Z,80.69
2018-09-13T18:57:46.181Z,81.84
2018-09-13T18:58:49.213Z,81.74
2018-09-13T18:59:48.275Z,81.74
2018-09-13T19:00:48.764Z,82.03
2018-09-13T19:01:49.617Z,81.55
2018-09-13T19:02:51.270Z,81.74
2018-09-13T19:03:46.119Z,81.36
2018-09-13T19:04:46.135Z,82.03
2018-09-13T19:05:46.173Z,81.93
2018-09-13T19:06:46.260Z,82.03
2018-09-13T19:07:46.277Z,81.74
2018-09-13T19:08:46.484Z,82.12
2018-09-13T19:09:46.096Z,81.93
2018-09-13T19:10:46.101Z,82.03
2018-09-13T19:11:46.813Z,82.31
2018-09-13T19:12:56.532Z,83.08
2018-09-13T19:13:46.202Z,83.08
2018-09-13T19:14:47.183Z,82.89
2018-09-13T19:15:50.756Z,83.08
2018-09-13T19:16:45.969Z,83.17
2018-09-13T19:17:46.068Z,83.17
2018-09-13T19:18:46.788Z,83.33
2018-09-13T19:19:50.704Z,84.23
2018-09-13T19:21:46.579Z,83.70
2018-09-13T19:22:47.627Z,84.42
2018-09-13T19:23:46.683Z,83.90
2018-09-13T19:24:45.957Z,84.09
2018-09-13T19:26:07.651Z,84.38
2018-09-13T19:27:00.528Z,84.09
2018-09-13T19:28:47.631Z,84.42
2018-09-13T19:29:48.747Z,84.56
2018-09-13T19:31:46.423Z,84.95
2018-09-13T19:32:45.889Z,85.52
2018-09-13T19:33:46.560Z,85.14
2018-09-13T19:34:47.068Z,84.76
2018-09-13T19:35:45.916Z,84.95
2018-09-13T19:36:47.601Z,85.71
2018-09-13T19:37:46.428Z,86.00
2018-09-13T19:38:46.715Z,85.81
2018-09-13T19:39:45.726Z,85.81
2018-09-13T19:40:45.781Z,86.19
2018-09-13T19:42:39.773Z,86.00
2018-09-13T19:43:39.139Z,86.00
2018-09-13T19:45:41.901Z,87.34
2018-09-13T19:46:32.060Z,86.76
2018-09-13T19:47:34.401Z,86.76
2018-09-13T19:48:36.545Z,86.47
2018-09-13T19:49:33.411Z,86.00
2018-09-13T19:50:33.679Z,86.29
2018-09-13T19:51:36.504Z,86.38
2018-09-13T19:52:36.950Z,87.34
2018-09-13T19:53:36.553Z,87.91
2018-09-13T19:54:32.401Z,88.01
2018-09-13T19:56:32.645Z,87.43
2018-09-13T19:57:32.594Z,87.43
2018-09-13T19:58:31.870Z,87.43
2018-09-13T19:59:34.536Z,87.15
2018-09-13T20:00:31.786Z,87.72
2018-09-13T20:01:31.659Z,87.24
2018-09-13T20:02:32.501Z,87.15
2018-09-13T20:03:31.817Z,87.91
2018-09-13T20:04:36.630Z,88.29
2018-09-13T20:05:31.840Z,88.68
2018-09-13T20:06:31.652Z,88.68
2018-09-13T20:07:32.563Z,88.20
2018-09-13T20:08:33.605Z,88.48
2018-09-13T20:09:31.670Z,88.68
2018-09-13T20:10:42.423Z,88.39
2018-09-13T20:11:33.444Z,88.29
2018-09-13T20:12:32.504Z,88.39
2018-09-13T20:13:32.548Z,88.58
2018-09-13T20:15:32.455Z,88.39
2018-09-13T20:16:31.524Z,88.48
2018-09-13T20:17:31.499Z,88.39
2018-09-13T20:18:34.635Z,87.82
2018-09-13T20:19:33.666Z,88.01
2018-09-13T20:20:31.523Z,88.20
2018-09-13T20:21:32.035Z,88.20
2018-09-13T20:22:31.386Z,88.48
2018-09-13T20:23:31.383Z,88.01
2018-09-13T20:24:33.129Z,88.20
2018-09-13T20:25:33.024Z,88.39
2018-09-13T20:26:31.287Z,88.58
2018-09-13T20:27:33.025Z,88.39
2018-09-13T20:28:34.126Z,88.10
2018-09-13T20:29:32.989Z,88.48
2018-09-13T20:30:31.510Z,88.29
2018-09-13T20:31:32.933Z,88.29
2018-09-13T20:32:41.912Z,88.48
2018-09-13T20:33:33.101Z,88.48
2018-09-13T20:34:31.247Z,88.68
2018-09-13T20:35:32.570Z,88.87
2018-09-13T20:36:31.320Z,88.87
2018-09-13T20:37:31.224Z,88.39
2018-09-13T20:38:32.993Z,89.34
2018-09-13T20:39:31.248Z,88.77
2018-09-13T20:40:31.350Z,89.25
2018-09-13T20:41:41.998Z,89.25
2018-09-13T20:42:31.262Z,89.34
2018-09-13T20:43:31.267Z,89.25
2018-09-13T20:44:52.313Z,89.82
2018-09-13T20:45:32.175Z,90.11
2018-09-13T20:46:32.067Z,90.01
2018-09-13T20:47:31.125Z,90.01
2018-09-13T20:48:31.185Z,90.20
2018-09-13T20:49:31.285Z,90.59
2018-09-13T20:50:57.510Z,90.59
2018-09-13T20:51:34.502Z,90.59
2018-09-13T20:52:31.493Z,90.59
2018-09-13T20:53:31.256Z,90.88
2018-09-13T20:54:34.057Z,90.97
2018-09-13T20:55:33.138Z,91.16
2018-09-13T20:56:31.033Z,90.88
2018-09-13T20:57:31.103Z,91.16
2018-09-13T20:58:31.087Z,90.68
2018-09-13T20:59:32.078Z,91.25
2018-09-13T21:00:30.974Z,90.88
2018-09-13T21:01:31.517Z,91.25
2018-09-13T21:02:31.548Z,91.06
2018-09-13T21:03:41.550Z,91.35
2018-09-13T21:04:33.612Z,90.88
2018-09-13T21:05:30.972Z,91.25
2018-09-13T21:06:30.939Z,91.45
2018-09-13T21:07:31.579Z,91.64
2018-09-13T21:09:31.018Z,92.21
2018-09-13T21:10:30.972Z,91.54
2018-09-13T21:11:31.094Z,91.64
2018-09-13T21:12:30.897Z,92.02
2018-09-13T21:14:30.816Z,92.11
2018-09-13T21:15:30.957Z,92.40
2018-09-13T21:16:32.424Z,92.11
2018-09-13T21:17:52.628Z,92.40
2018-09-13T21:18:30.930Z,92.40
2018-09-13T21:19:35.575Z,93.07
2018-09-13T21:20:30.779Z,92.59
2018-09-13T21:21:37.621Z,92.40
2018-09-13T21:22:30.985Z,92.40
2018-09-13T21:23:35.568Z,92.59
2018-09-13T21:24:35.623Z,92.30
2018-09-13T21:25:31.518Z,92.30
2018-09-13T21:26:30.971Z,92.21
2018-09-13T21:27:41.417Z,92.11
2018-09-13T21:28:31.655Z,92.59
2018-09-13T21:29:31.508Z,92.40
2018-09-13T21:32:32.477Z,92.21
2018-09-13T21:33:31.557Z,92.50
2018-09-13T21:35:30.670Z,91.93
2018-09-13T21:36:31.063Z,91.74
2018-09-13T21:37:31.638Z,92.21
2018-09-13T21:39:30.658Z,91.83
2018-09-13T21:40:31.168Z,91.83
2018-09-13T21:41:33.431Z,92.30
2018-09-13T21:42:30.964Z,91.93
2018-09-13T21:43:30.334Z,91.83
2018-09-13T21:44:30.656Z,92.02
2018-09-13T21:45:37.034Z,91.83
2018-09-13T21:46:31.015Z,92.11
2018-09-13T21:47:31.034Z,92.50
2018-09-13T21:48:30.588Z,92.40
2018-09-13T21:49:30.359Z,92.02
2018-09-13T21:50:31.129Z,92.02
2018-09-13T21:51:30.984Z,92.11
2018-09-13T21:52:32.149Z,92.59
2018-09-13T21:53:31.031Z,93.16
2018-09-13T21:54:30.284Z,92.40
2018-09-13T21:55:30.347Z,92.30
2018-09-13T21:56:31.938Z,92.97
2018-09-13T21:58:31.167Z,92.59
2018-09-13T22:01:30.378Z,93.26
2018-09-13T22:02:30.262Z,92.88
2018-09-13T22:03:32.036Z,93.16
2018-09-13T22:04:33.012Z,92.69
2018-09-13T22:05:37.027Z,92.59
2018-09-13T22:06:31.050Z,92.97
2018-09-13T22:07:34.987Z,93.07
2018-09-13T22:08:30.324Z,92.79
2018-09-13T22:09:31.972Z,92.88
2018-09-13T22:10:30.247Z,92.97
2018-09-13T22:11:34.982Z,92.97
2018-09-13T22:12:30.165Z,92.88
2018-09-13T22:13:31.176Z,93.36
2018-09-13T22:14:34.969Z,93.16
2018-09-13T22:15:31.134Z,93.26
2018-09-13T22:16:30.139Z,93.07
2018-09-13T22:17:30.226Z,93.16
2018-09-13T22:18:30.206Z,93.16
2018-09-13T22:19:37.549Z,92.97
2018-09-13T22:21:31.211Z,93.07
2018-09-13T22:22:31.852Z,93.74
2018-09-13T22:23:30.041Z,93.55
2018-09-13T22:24:29.870Z,92.97
2018-09-13T22:25:30.048Z,93.07
2018-09-13T22:26:31.595Z,92.79
2018-09-13T22:27:30.605Z,93.16
2018-09-13T22:28:32.117Z,93.36
2018-09-13T22:29:30.076Z,93.65
2018-09-13T22:30:31.565Z,92.97
2018-09-13T22:31:30.005Z,92.79
2018-09-13T22:32:29.879Z,92.88
2018-09-13T22:33:34.587Z,93.07
2018-09-13T22:34:40.579Z,92.97
2018-09-13T22:35:32.511Z,93.12
2018-09-13T22:36:34.539Z,92.97
2018-09-13T22:37:29.863Z,92.97
2018-09-13T22:39:29.748Z,92.97
2018-09-13T22:40:29.745Z,93.02
2018-09-13T22:41:34.493Z,93.12
2018-09-13T22:42:30.593Z,93.55
2018-09-13T22:43:31.481Z,93.12
2018-09-13T22:44:31.661Z,93.21
2018-09-13T22:45:29.927Z,93.21
2018-09-13T22:46:31.531Z,93.40
2018-09-13T22:47:31.075Z,92.93
2018-09-13T22:48:32.426Z,92.97
2018-09-13T22:49:30.619Z,93.07
2018-09-13T22:50:30.573Z,92.74
2018-09-13T22:51:34.539Z,93.12
2018-09-13T22:52:29.760Z,92.93
2018-09-13T22:54:31.958Z,92.93
2018-09-13T22:55:40.466Z,92.93
2018-09-13T22:56:29.760Z,93.12
2018-09-13T22:57:29.720Z,93.79
2018-09-13T22:58:30.620Z,92.93
2018-09-13T22:59:36.466Z,92.83
2018-09-13T23:00:29.615Z,93.60
2018-09-13T23:01:31.484Z,93.69
2018-09-13T23:02:32.380Z,93.02
2018-09-13T23:03:29.527Z,92.83
2018-09-13T23:04:29.667Z,93.02
2018-09-13T23:05:44.333Z,93.60
2018-09-13T23:06:29.523Z,93.21
2018-09-13T23:07:29.464Z,93.50
2018-09-13T23:08:29.606Z,93.31
2018-09-13T23:09:51.158Z,93.50
2018-09-13T23:10:29.613Z,93.40
2018-09-13T23:11:29.485Z,93.60
2018-09-13T23:12:29.433Z,92.83
2018-09-13T23:13:29.367Z,92.83
2018-09-13T23:14:34.129Z,93.40
2018-09-13T23:15:29.285Z,93.60
2018-09-13T23:16:29.453Z,93.12
2018-09-13T23:17:29.476Z,93.02
2018-09-13T23:18:29.364Z,93.40
2018-09-13T23:19:29.435Z,93.50
2018-09-13T23:20:29.403Z,93.21
2018-09-13T23:21:29.462Z,93.60
2018-09-13T23:22:31.087Z,93.21
2018-09-13T23:23:29.325Z,93.21
2018-09-13T23:24:29.332Z,93.40
2018-09-13T23:25:31.026Z,93.21
2018-09-13T23:26:29.271Z,93.31
2018-09-13T23:27:40.017Z,93.02
2018-09-13T23:28:43.982Z,93.26
2018-09-13T23:29:29.366Z,93.21
2018-09-13T23:30:29.287Z,93.21
2018-09-13T23:31:29.300Z,93.21
2018-09-13T23:32:29.204Z,93.60
2018-09-13T23:36:05.176Z,93.12
2018-09-13T23:36:51.861Z,93.40
2018-09-13T23:37:51.817Z,93.79
2018-09-13T23:38:51.719Z,93.26
2018-09-13T23:39:51.049Z,93.21
2018-09-13T23:41:11.685Z,93.21
2018-09-13T23:41:50.674Z,93.50
2018-09-13T23:42:51.367Z,93.31
2018-09-13T23:43:50.759Z,93.40
2018-09-13T23:44:51.391Z,93.79
2018-09-13T23:45:52.058Z,93.12
2018-09-13T23:46:50.581Z,93.16
2018-09-13T23:47:50.790Z,93.36
2018-09-13T23:48:50.720Z,93.16
2018-09-13T23:49:52.258Z,93.60
2018-09-13T23:50:51.398Z,93.79
2018-09-13T23:52:05.368Z,93.26
2018-09-13T23:52:50.672Z,93.36
2018-09-13T23:55:01.342Z,93.21
2018-09-13T23:55:50.540Z,93.69
2018-09-13T23:56:53.314Z,94.07
2018-09-13T23:57:50.618Z,94.17
2018-09-13T23:58:50.517Z,93.88
